Main page
METAR-TAF:

METAR-TAF

Airports :

Moscow-Sheremetyevo, Russia

Sheremetyevo International Airport

latitude: 55-59N, longitude: 037-30E, elevation: 190 m

Current weather observation

The report was made 38 minutes ago, at 20:00 UTC
Wind 2 kt from the West/Northwest
Temperature 10°C
Humidity 82%
Pressure 1005 hPa
Visibility 10 km or more
no clouds below 1500 m and no cumulonimbus

METAR: UUEE 232000Z 29001MPS CAVOK 10/07 Q1005 R24R/CLRD62 R24L/CLRD62 NOSIG

Time: 23:38 (20:38 UTC)

Forecast

The report was made 3 hours and 42 minutes ago, at 16:56 UTC
Forecast valid from 23 at 18 UTC to 24 at 18 UTC
Wind 10 kt from the West
Visibility 10 km or more
Broken clouds at a height of 2000 ft
Becoming
from 23 at 22 UTC to 24 at 02 UTC
Wind 8 kt from the West/Northwest

TAF: UUEE 231656Z 2318/2418 27005MPS 9999 BKN020 TX20/2412Z TN07/2402Z BECMG 2322/2402 30004MPS

Weather observations and forecasts of more than 4000 airports (METAR and TAF reports).

The available stations are represented by yellow and red dots on the map.

Hover mouse over dot to see the name of the station.

Then click to see weather observations and forecasts.

To change the map : click on the green buttons with a black cross to zoom in, on the green button with a dash to zoom out, or on the green arrows for adjacent maps.


METAR-TAF: